Home > Products > Valid Products > MTR

000
SAUS46 KMTR 211957
MTRMHS
METAR KMHS 211956Z AUTO 00000KT 10SM BKN023 11/04 A3012 RMK AO2
SLP219 T01060044





000
SAUS46 KMTR 211757
MTRMHS
METAR KMHS 211756Z AUTO 00000KT 10SM CLR 08/04 A3013 RMK AO2 SLP224
T00830044 10089 20022 50001





000
SAUS46 KMTR 211657
MTRMHS
METAR KMHS 211656Z AUTO 00000KT 10SM FEW014 07/04 A3013 RMK AO2
SLP225 T00720044





000
SAUS46 KMTR 211657
MTRMHS
METAR KMHS 211656Z AUTO 00000KT 10SM FEW014 07/04 A3013 RMK AO2
SLP225 T00720044





000
SAUS46 KMTR 211558
MTRMHS
METAR KMHS 211556Z AUTO 00000KT 10SM FEW004 OVC100 06/04 A3013 RMK
AO2 SLP225 T00560044





000
SAUS46 KMTR 211558
MTRMHS
METAR KMHS 211556Z AUTO 00000KT 10SM FEW004 OVC100 06/04 A3013 RMK
AO2 SLP225 T00560044





000
SAUS46 KMTR 211553
MTRMHS
SPECI KMHS 211551Z AUTO 00000KT 10SM FEW004 BKN100 06/04 A3013 RMK
AO2





000
SAUS46 KMTR 211553
MTRMHS
SPECI KMHS 211551Z AUTO 00000KT 10SM FEW004 BKN100 06/04 A3013 RMK
AO2





000
SAUS46 KMTR 211457
MTRMHS
METAR KMHS 211456Z AUTO 00000KT 10SM OVC003 03/03 A3011 RMK AO2
SLP220 T00330028 51010





000
SAUS46 KMTR 211357
MTRMHS
METAR KMHS 211356Z AUTO 00000KT 10SM OVC003 03/02 A3011 RMK AO2
SLP218 T00280022





000
SAUS46 KMTR 211312
MTRMHS
SPECI KMHS 211311Z AUTO 06003KT 10SM OVC004 03/02 A3009 RMK AO2 CIG
002V007 T00280017





000
SAUS46 KMTR 211257
MTRMHS
METAR KMHS 211256Z AUTO 06003KT 10SM OVC006 03/02 A3009 RMK AO2 CIG
004V008 SLP208 T00280017





000
SAUS46 KMTR 211211
MTRMHS
SPECI KMHS 211209Z AUTO 00000KT 10SM OVC006 03/02 A3008 RMK AO2 CIG
004V009 T00330022





000
SAUS46 KMTR 211157
MTRMHS
METAR KMHS 211156Z AUTO 00000KT 10SM OVC004 03/02 A3008 RMK AO2
SLP203 70017 T00280022 10039 20011 53007





000
SAUS46 KMTR 211157
MTRMHS
METAR KMHS 211156Z AUTO 00000KT 10SM OVC004 03/02 A3008 RMK AO2
SLP203 70017 T00280022 10039 20011 53007





000
SAUS46 KMTR 211122
MTRMHS
SPECI KMHS 211121Z AUTO 00000KT 10SM OVC004 02/01 A3007 RMK AO2 CIG
004V007 T00220011





000
SAUS46 KMTR 211122
MTRMHS
SPECI KMHS 211121Z AUTO 00000KT 10SM OVC004 02/01 A3007 RMK AO2 CIG
004V007 T00220011





000
SAUS46 KMTR 211107
MTRMHS
SPECI KMHS 211106Z AUTO 00000KT 10SM BKN006 02/01 A3006 RMK AO2 CIG
005V009 T00170006





000
SAUS46 KMTR 211107
MTRMHS
SPECI KMHS 211106Z AUTO 00000KT 10SM BKN006 02/01 A3006 RMK AO2 CIG
005V009 T00170006





000
SAUS46 KMTR 211057
MTRMHS
METAR KMHS 211056Z AUTO 00000KT 10SM SCT007 01/00 A3006 RMK AO2
SLP197 T00110000





000
SAUS46 KMTR 211057
MTRMHS
METAR KMHS 211056Z AUTO 00000KT 10SM SCT007 01/00 A3006 RMK AO2
SLP197 T00110000





000
SAUS46 KMTR 211055
MTRMHS
SPECI KMHS 211053Z AUTO 00000KT 10SM FEW007 01/00 A3006 RMK AO2





000
SAUS46 KMTR 211055
MTRMHS
SPECI KMHS 211053Z AUTO 00000KT 10SM FEW007 01/00 A3006 RMK AO2





000
SAUS46 KMTR 210957
MTRMHS
METAR KMHS 210956Z AUTO 00000KT 10SM BKN031 02/01 A3005 RMK AO2
SLP194 T00170006





000
SAUS46 KMTR 210957
MTRMHS
METAR KMHS 210956Z AUTO 00000KT 10SM BKN031 02/01 A3005 RMK AO2
SLP194 T00170006





000
SAUS46 KMTR 210857
MTRMHS
METAR KMHS 210856Z AUTO 00000KT 10SM FEW031 02/01 A3002 RMK AO2
SLP185 T00170006 51016





000
SAUS46 KMTR 210757
MTRMHS
METAR KMHS 210756Z AUTO 00000KT 10SM CLR 02/01 A3001 RMK AO2 SLP180
T00220011 401440022





000
SAUS46 KMTR 210657
MTRMHS
METAR KMHS 210656Z AUTO 00000KT 10SM BKN050 03/02 A3000 RMK AO2
SLP176 T00280017





000
SAUS46 KMTR 210557
MTRMHS
METAR KMHS 210556Z AUTO 00000KT 10SM CLR 04/03 A2997 RMK AO2 SLP166
60007 T00440033 10128 20044 53014





000
SAUS46 KMTR 210457
MTRMHS
METAR KMHS 210456Z AUTO 00000KT 10SM CLR 06/04 A2995 RMK AO2 SLP157
T00560039





000
SAUS46 KMTR 210357
MTRMHS
METAR KMHS 210356Z AUTO 00000KT 10SM FEW070 OVC090 07/06 A2994 RMK
AO2 RAE08 SLP151 P0000 T00670056





000
SAUS46 KMTR 210357
MTRMHS
METAR KMHS 210356Z AUTO 00000KT 10SM FEW070 OVC090 07/06 A2994 RMK
AO2 RAE08 SLP151 P0000 T00670056





000
SAUS46 KMTR 210257
MTRMHS
METAR KMHS 210256Z AUTO 00000KT 10SM -RA BKN049 OVC060 07/06 A2993
RMK AO2 SLP146 P0003 60007 T00720061 53018





000
SAUS46 KMTR 210157
MTRMHS
METAR KMHS 210156Z AUTO VRB03KT 6SM RA BR FEW013 OVC038 08/06 A2991
RMK AO2 RAB35 SLP138 P0004 T00780056





000
SAUS46 KMTR 210157
MTRMHS
METAR KMHS 210156Z AUTO VRB03KT 6SM RA BR FEW013 OVC038 08/06 A2991
RMK AO2 RAB35 SLP138 P0004 T00780056





000
SAUS46 KMTR 210057
MTRMHS
METAR KMHS 210056Z AUTO 00000KT 10SM FEW046 BKN060 11/07 A2988 RMK
AO2 SLP122 T01110072





000
SAUS46 KMTR 202357
MTRMHS
METAR KMHS 202356Z AUTO VRB03KT 10SM FEW055 13/07 A2987 RMK AO2
SLP118 60001 T01280072 10144 20111 58002





000
SAUS46 KMTR 202157
MTRMHS
METAR KMHS 202156Z AUTO VRB04KT 10SM FEW033 FEW045 SCT090 14/09
A2987 RMK AO2 RAB2058E13 SLP116 P0000 T01390089





000
SAUS46 KMTR 202157
MTRMHS
METAR KMHS 202156Z AUTO VRB04KT 10SM FEW033 FEW045 SCT090 14/09
A2987 RMK AO2 RAB2058E13 SLP116 P0000 T01390089





000
SAUS46 KMTR 202057
MTRMHS
METAR KMHS 202056Z AUTO VRB03KT 10SM BKN044 BKN055 OVC070 12/09
A2988 RMK AO2 SLP119 60001 T01220089 57005





000
SAUS46 KMTR 201957
MTRMHS
METAR KMHS 201956Z AUTO VRB04KT 10SM FEW007 BKN037 OVC047 13/10
A2988 RMK AO2 RAE05 SLP119 P0000 T01280100





000
SAUS46 KMTR 201955
MTRMHS
SPECI KMHS 201954Z AUTO VRB03KT 10SM FEW008 BKN037 OVC047 13/11
A2988 RMK AO2 RAE05 P0000





000
SAUS46 KMTR 201939
MTRMHS
SPECI KMHS 201938Z AUTO VRB03KT 10SM SCT010 BKN024 OVC037 12/10
A2989 RMK AO2 RAE05 P0000 T01220100





000
SAUS46 KMTR 201931
MTRMHS
SPECI KMHS 201930Z AUTO VRB03KT 10SM SCT010 BKN013 OVC040 13/10
A2988 RMK AO2 RAE05 P0000 T01280100





000
SAUS46 KMTR 201857
MTRMHS
METAR KMHS 201856Z AUTO 09003KT 9SM -RA BKN009 BKN021 OVC028 12/10
A2989 RMK AO2 SLP125 P0001 T01170100





000
SAUS46 KMTR 201840
MTRMHS
SPECI KMHS 201837Z AUTO VRB04KT 9SM -RA FEW009 BKN024 OVC029 11/10
A2990 RMK AO2 P0001 T01110100





000
SAUS46 KMTR 201832
MTRMHS
SPECI KMHS 201830Z AUTO VRB03KT 10SM -RA FEW011 SCT022 OVC029 11/09
A2990 RMK AO2 P0001 T01110094





000
SAUS46 KMTR 201824
MTRMHS
SPECI KMHS 201823Z AUTO VRB03KT 9SM -RA FEW009 SCT024 OVC032 12/10
A2989 RMK AO2 P0001 T01170100





000
SAUS46 KMTR 201757
MTRMHS
METAR KMHS 201756Z AUTO 12004KT 7SM -RA FEW016 BKN036 OVC048 11/09
A2989 RMK AO2 RAB05E23B29 SLP126 P0002 60009 T01060094 10128 20106
51007





000
SAUS46 KMTR 201724
MTRMHS
SPECI KMHS 201723Z AUTO 9SM SCT019 BKN024 OVC030 11/09 A2990 RMK AO2
RAB05E23 P0000 T01060089





000
SAUS46 KMTR 201658
MTRMHS
METAR KMHS 201656Z AUTO 08006KT 9SM FEW026 BKN032 OVC040 11/09 A2989
RMK AO2 RAE51 SLP126 P0000 T01060089





000
SAUS46 KMTR 201649
MTRMHS
SPECI KMHS 201647Z AUTO VRB04KT 10SM -RA SCT024 BKN029 OVC039 11/09
A2989 RMK AO2 P0000 T01060094





000
SAUS46 KMTR 201557
MTRMHS
METAR KMHS 201556Z AUTO VRB04KT 8SM -RA FEW024 BKN040 OVC049 11/09
A2989 RMK AO2 SLP126 P0004 T01060094





000
SAUS46 KMTR 201539
MTRMHS
SPECI KMHS 201538Z AUTO 00000KT 6SM -RA BR FEW017 BKN037 OVC046
11/09 A2988 RMK AO2 P0001 T01110094





000
SAUS46 KMTR 201457
MTRMHS
METAR KMHS 201456Z AUTO VRB06KT 9SM -RA FEW013 BKN029 OVC045 11/09
A2987 RMK AO2 SLP119 P0002 60003 T01110094 55000





000
SAUS46 KMTR 201445
MTRMHS
SPECI KMHS 201444Z AUTO VRB03KT 7SM -RA FEW013 SCT027 OVC046 11/09
A2988 RMK AO2 P0002 T01110094





000
SAUS46 KMTR 201412
MTRMHS
SPECI KMHS 201409Z AUTO VRB04KT 10SM -RA SCT018 BKN029 OVC065 12/09
A2987 RMK AO2 P0000 T01170094





000
SAUS46 KMTR 201357
MTRMHS
METAR KMHS 201356Z AUTO VRB04KT 10SM -RA FEW020 BKN049 OVC065 12/09
A2987 RMK AO2 RAB31 SLP116 P0001 T01170094





000
SAUS46 KMTR 201312
MTRMHS
SPECI KMHS 201311Z AUTO 08007KT 10SM FEW025 SCT030 OVC041 12/09
A2987 RMK AO2 T01220089





000
SAUS46 KMTR 201257
MTRMHS
METAR KMHS 201256Z AUTO 08008KT 10SM BKN028 OVC038 13/09 A2987 RMK
AO2 SLP116 T01280089





000
SAUS46 KMTR 201157
MTRMHS
METAR KMHS 201156Z AUTO 10005KT 10SM FEW017 BKN022 OVC040 13/09
A2987 RMK AO2 SLP115 T01280089 10150 20122 55003





000
SAUS46 KMTR 201155
MTRMHS
SPECI KMHS 201154Z AUTO 09007KT 10SM FEW017 BKN022 OVC040 13/09
A2987 RMK AO2





000
SAUS46 KMTR 200957
MTRMHS
METAR KMHS 200956Z AUTO VRB06G14KT 10SM SCT029 OVC039 14/09 A2988
RMK AO2 SLP115 T01390089





000
SAUS46 KMTR 200957
MTRMHS
METAR KMHS 200956Z AUTO VRB06G14KT 10SM SCT029 OVC039 14/09 A2988
RMK AO2 SLP115 T01390089





000
SAUS46 KMTR 200954
MTRMHS
SPECI KMHS 200953Z AUTO 09007G14KT 10SM SCT029 OVC039 14/09 A2988
RMK AO2





000
SAUS46 KMTR 200954
MTRMHS
SPECI KMHS 200953Z AUTO 09007G14KT 10SM SCT029 OVC039 14/09 A2988
RMK AO2





000
SAUS46 KMTR 200858
MTRMHS
METAR KMHS 200856Z AUTO VRB03KT 10SM BKN026 OVC030 14/09 A2989 RMK
AO2 SLP117 T01390089 58004





000
SAUS46 KMTR 200759
MTRMHS
METAR KMHS 200756Z AUTO 00000KT 10SM OVC024 14/09 A2990 RMK AO2
SLP122 T01390094 401940061





000
SAUS46 KMTR 200759
MTRMHS
METAR KMHS 200756Z AUTO 00000KT 10SM OVC024 14/09 A2990 RMK AO2
SLP122 T01390094 401940061





000
SAUS46 KMTR 200657
MTRMHS
METAR KMHS 200656Z AUTO 10004KT 10SM BKN026 OVC050 15/09 A2990 RMK
AO2 SLP121 T01500089





000
SAUS46 KMTR 200635
MTRMHS
SPECI KMHS 200633Z AUTO 00000KT 10SM BKN028 OVC036 15/09 A2990 RMK
AO2 T01500089





000
SAUS46 KMTR 200557
MTRMHS
METAR KMHS 200556Z AUTO 00000KT 10SM BKN030 OVC034 15/09 A2990 RMK
AO2 SLP124 T01500089 10150 20117 58002





000
SAUS46 KMTR 200457
MTRMHS
METAR KMHS 200456Z AUTO 00000KT 10SM BKN032 OVC065 14/08 A2991 RMK
AO2 SLP128 T01390078





000
SAUS46 KMTR 200357
MTRMHS
METAR KMHS 200356Z AUTO 00000KT 10SM FEW065 13/08 A2991 RMK AO2
SLP131 T01280078





000
SAUS46 KMTR 200257
MTRMHS
METAR KMHS 200256Z AUTO VRB03KT 10SM CLR 14/08 A2991 RMK AO2 SLP136
T01390083 53001





000
SAUS46 KMTR 200157
MTRMHS
METAR KMHS 200156Z AUTO 00000KT 10SM CLR 14/08 A2991 RMK AO2 SLP135
T01390083





000
SAUS46 KMTR 200057
MTRMHS
METAR KMHS 200056Z AUTO 00000KT 10SM CLR 15/09 A2990 RMK AO2 SLP132
T01500089





000
SAUS46 KMTR 192357
MTRMHS
METAR KMHS 192356Z AUTO 00000KT 10SM CLR 17/09 A2991 RMK AO2 SLP132
T01720089 10194 20139 56013





000
SAUS46 KMTR 192357
MTRMHS
METAR KMHS 192356Z AUTO 00000KT 10SM CLR 17/09 A2991 RMK AO2 SLP132
T01720089 10194 20139 56013





000
SAUS46 KMTR 192257
MTRMHS
METAR KMHS 192256Z AUTO 10SM SCT041 19/09 A2992 RMK AO2 SLP133
T01940094





000
SAUS46 KMTR 192257
MTRMHS
METAR KMHS 192256Z AUTO 10SM SCT041 19/09 A2992 RMK AO2 SLP133
T01940094





000
SAUS46 KMTR 192157
MTRMHS
METAR KMHS 192156Z AUTO 00000KT 10SM SCT038 BKN045 18/10 A2992 RMK
AO2 SLP130 T01780100





000
SAUS46 KMTR 192057
MTRMHS
METAR KMHS 192056Z AUTO 00000KT 10SM BKN038 18/11 A2995 RMK AO2
SLP147 T01780106 58012





000
SAUS46 KMTR 192042
MTRMHS
SPECI KMHS 192041Z AUTO 00000KT 10SM SCT029 OVC037 18/10 A2995 RMK
AO2 T01780100





000
SAUS46 KMTR 192028
MTRMHS
SPECI KMHS 192027Z AUTO 13003KT 10SM BKN029 OVC035 16/10 A2996 RMK
AO2 T01610100





000
SAUS46 KMTR 191958
MTRMHS
METAR KMHS 191956Z AUTO VRB04KT 10SM SCT029 OVC034 16/10 A2997 RMK
AO2 SLP156 T01610100





000
SAUS46 KMTR 191935
MTRMHS
SPECI KMHS 191932Z AUTO 00000KT 10SM BKN028 OVC038 16/09 A2998 RMK
AO2 T01560094





000
SAUS46 KMTR 191917
MTRMHS
SPECI KMHS 191914Z AUTO 00000KT 10SM SCT026 BKN040 16/10 A2998 RMK
AO2 T01560100





000
SAUS46 KMTR 191857
MTRMHS
METAR KMHS 191856Z AUTO VRB03KT 10SM BKN026 BKN042 16/09 A2998 RMK
AO2 SLP158 T01610094





000
SAUS46 KMTR 191829
MTRMHS
SPECI KMHS 191828Z AUTO VRB03KT 10SM BKN026 OVC035 14/09 A2998 RMK
AO2 T01440089





000
SAUS46 KMTR 191809
MTRMHS
SPECI KMHS 191806Z AUTO 00000KT 10SM BKN030 OVC037 14/09 A2998 RMK
AO2 T01440094





000
SAUS46 KMTR 191757
MTRMHS
METAR KMHS 191756Z AUTO 00000KT 10SM OVC028 14/09 A2999 RMK AO2
SLP162 T01440094 10144 20072 51008





000
SAUS46 KMTR 191657
MTRMHS
METAR KMHS 191656Z AUTO VRB03KT 10SM BKN025 BKN030 OVC038 14/09
A2998 RMK AO2 SLP161 T01390094





000
SAUS46 KMTR 191650
MTRMHS
SPECI KMHS 191647Z AUTO 00000KT 10SM BKN025 BKN030 OVC038 13/09
A2998 RMK AO2 T01330094





000
SAUS46 KMTR 191650
MTRMHS
SPECI KMHS 191647Z AUTO 00000KT 10SM BKN025 BKN030 OVC038 13/09
A2998 RMK AO2 T01330094





000
SAUS46 KMTR 191626
MTRMHS
SPECI KMHS 191625Z AUTO 00000KT 10SM SCT029 BKN038 14/09 A2997 RMK
AO2 T01390094





000
SAUS46 KMTR 191557
MTRMHS
METAR KMHS 191556Z AUTO 00000KT 10SM OVC028 13/09 A2998 RMK AO2
SLP160 T01280089





000
SAUS46 KMTR 191513
MTRMHS
SPECI KMHS 191512Z AUTO 00000KT 10SM BKN027 10/08 A2997 RMK AO2
T01000083





000
SAUS46 KMTR 191457
MTRMHS
METAR KMHS 191456Z AUTO 00000KT 10SM SCT027 08/07 A2996 RMK AO2
SLP156 T00830067 53003





000
SAUS46 KMTR 191357
MTRMHS
METAR KMHS 191356Z AUTO 00000KT 10SM CLR 07/06 A2996 RMK AO2 SLP153
T00720061





000
SAUS46 KMTR 191257
MTRMHS
METAR KMHS 191256Z AUTO 00000KT 10SM CLR 08/06 A2995 RMK AO2 SLP146
T00780061





000
SAUS46 KMTR 190957
MTRMHS
METAR KMHS 190956Z AUTO VRB03KT 10SM CLR 13/08 A2996 RMK AO2 SLP139
T01280078





000
SAUS46 KMTR 190957
MTRMHS
METAR KMHS 190956Z AUTO VRB03KT 10SM CLR 13/08 A2996 RMK AO2 SLP139
T01280078





000
SAUS46 KMTR 190757
MTRMHS
METAR KMHS 190756Z AUTO 00000KT 10SM CLR 06/05 A2997 RMK AO2 SLP151
T00610050 402110056





000
SAUS46 KMTR 190457
MTRMHS
METAR KMHS 190456Z AUTO 00000KT 10SM CLR 08/05 A2997 RMK AO2 SLP157
T00830050





000
SAUS46 KMTR 190457
MTRMHS
METAR KMHS 190456Z AUTO 00000KT 10SM CLR 08/05 A2997 RMK AO2 SLP157
T00830050





000
SAUS46 KMTR 190157
MTRMHS
METAR KMHS 190156Z AUTO 00000KT 10SM CLR 13/09 A2996 RMK AO2 SLP151
T01330089





000
SAUS46 KMTR 190058
MTRMHS
METAR KMHS 190056Z AUTO 00000KT 10SM CLR 17/08 A2996 RMK AO2 SLP147
T01670083





000
SAUS46 KMTR 182357
MTRMHS
METAR KMHS 182356Z AUTO 00000KT 10SM CLR 19/07 A2996 RMK AO2 SLP146
T01940072 10211 20156 56016





000
SAUS46 KMTR 182259
MTRMHS
METAR KMHS 182256Z AUTO 00000KT 10SM CLR 21/07 A2998 RMK AO2 SLP149
T02060072





000
SAUS46 KMTR 182157
MTRMHS
METAR KMHS 182156Z AUTO 00000KT 10SM CLR 21/08 A2999 RMK AO2 SLP153
T02110078





    US Dept of Commerce
    National Oceanic and Atmospheric Administration
    National Weather Service
    1325 East West Highway
    Silver Spring, MD 20910
    Page Author: NWS Internet Services Team
Disclaimer
Information Quality
Credits
Glossary
Privacy Policy
Freedom of Information Act (FOIA)
About Us
Career Opportunities